Tiempo atmosférico en la estación meteorológica de Villanueva De Córdoba, Córdoba (740 m.)



Fecha
DESCASC
Temp. máxima en grados centígrados (hora)
DESCASC
Temp. mínima en grados centígrados (hora)
DESCASC
Temp. media en grados centígrados
DESCASC
Racha de viento máxima en m/sg (hora)
DESCASC
Velocidad máxima media en intervalos de 10 minutos(hora)
DESCASC
Precipitaciones diarias en mm
DESCASC
Precipitaciones de 00:00 a 06:00 en mm
DESCASC
Precipitaciones de 06:00 a 12:00 en mm
DESCASC
Precipitaciones de 12:00 a 18:00 en mm
DESCASC
Precipitaciones de 18:00 a 24:00 en mm
DESCASC
20-01-2019 10.8 (16:40) 3.9 (23:59) 7.4 10.56 (13:50) 5.83 (05:20) 3.8 1.8 1.8 0.2 0
19-01-2019 7.6 (15:00) 1 (07:20) 4.3 7.78 (17:20) 4.17 (17:40) 7 0 0 0.6 6.4
18-01-2019 9.9 (15:20) 1.3 (00:00) 5.6 5.83 (15:10) 3.33 (17:00) 0 0 0 0 0
17-01-2019 8.5 (15:20) 3.2 (00:00) 5.9 5.83 (12:50) 2.78 (13:30) 0 0 0 0 0
16-01-2019 8.9 (14:50) 3.6 (00:00) 6.2 7.5 (12:30) 4.17 (12:30) 0 0 0 0 0
15-01-2019 16.4 (15:20) 4.2 (00:00) 10.3 6.67 (17:00) 3.61 (16:50) 0 0 0 0 0
14-01-2019 15.4 (16:00) 3.5 (00:00) 9.4 5.28 (16:50) 3.06 (15:00) 0 0 0 0 0
13-01-2019 13.8 (15:40) 3 (00:00) 8.4 5.28 (15:10) 2.78 (20:00) 0 0 0 0 0
12-01-2019 13.2 (15:10) -0.2 (00:00) 6.5 5.28 (12:20) 3.06 (16:40) 0 0 0 0 0
11-01-2019 8.4 (15:20) -1.1 (-00:0) 3.6 8.89 (09:50) 4.72 (09:30) 0 0 0 0 0
10-01-2019 10.6 (16:10) 1.3 (00:00) 6 7.78 (21:10) 4.17 (21:10) 0 0 0 0 0
09-01-2019 14.8 (15:10) 5.1 (00:00) 10 8.61 (14:10) 3.61 (14:10) 0 0 0 0 0
08-01-2019 14.9 (13:40) 4.7 (00:00) 9.8 5.28 (22:30) 2.78 (16:30) 0 0 0 0 0
07-01-2019 15.7 (14:30) 2.6 (00:00) 9.1 8.89 (15:50) 3.89 (15:50) 0 0 0 0 0
06-01-2019 15.5 (16:00) 4.4 (00:00) 10 5.56 (14:20) 3.06 (18:50) 0 0 0 0 0
05-01-2019 15.5 (13:10) 4.1 (00:00) 9.8 5.28 (16:00) 3.06 (20:50) 0 0 0 0 0
04-01-2019 14.5 (14:40) 3.9 (00:00) 9.2 3.61 (15:30) 1.94 (08:30) 0 0 0 0 0
03-01-2019 13.4 (15:30) 3.4 (00:00) 8.4 6.11 (15:50) 3.33 (13:30) 0 0 0 0 0
02-01-2019 13.8 (15:00) 4.8 (00:00) 9.3 5 (13:40) 3.06 (13:00) 0 0 0 0 0
01-01-2019 16.3 (14:40) 7.8 (00:00) 12 4.72 (15:20) 2.5 (00:30) 0 0 0 0 0
31-12-2018 17.9 (15:20) 5.2 (00:00) 11.5 4.44 (11:20) 2.5 (23:10) 0 0 0 0 0
30-12-2018 13.9 (14:50) 5 (00:00) 9.4 8.33 (13:00) 3.89 (12:10) 0 0 0 0 0
29-12-2018 12.1 (15:30) 2.3 (00:00) 7.2 9.17 (12:30) 4.17 (12:20) 0 0 0 0 0
28-12-2018 7.4 (14:00) 3.8 (00:00) 5.6 6.39 (18:30) 3.61 (07:50) 0.2 0 0.2 0 0
27-12-2018 14.5 (14:40) 5.8 (00:00) 10.2 5.83 (15:10) 3.06 (15:10) 0 0 0 0 0
26-12-2018 15.9 (14:00) 6 (00:00) 10.9 4.72 (15:10) 2.78 (15:10) 0 0 0 0 0
25-12-2018 18.6 (14:00) 9.2 (00:00) 13.9 4.17 (14:40) 2.78 (14:40) 0 0 0 0 0
24-12-2018 18.7 (14:00) 7.5 (06:40) 13.1 6.11 (07:00) 2.5 (15:10) 0 0 0 0 0
23-12-2018 19.3 (14:40) 7.1 (00:00) 13.2 6.11 (05:20) 3.06 (05:20) 0 0 0 0 0

Gráficas

Temp. máximas Temp. mínimas Temp. medias Precipitaciones Rachas de viento máximas Velocidades máximas media en intervalos de 10 minutos

Datos horarios

Fecha y hora oficial Temperatura (ºC) Velocidad del viento (km/h) Dirección del viento Racha (km/h) Dirección de racha Precipitación (mm) Presión (hPa) Tendencia (hPa) Humedad (%)
2019-01-21 23:00:00 3.9 7 Norte 15 Norte 0 934.9 1 80
2019-01-21 22:00:00 3.9 8 Noroeste 17 Norte 0 934.5 1.1 76
2019-01-21 21:00:00 4.8 8 Norte 20 Noroeste 0 934.4 1 66
2019-01-21 20:00:00 5.1 7 Norte 12 Norte 0 933.9 0.6 57
2019-01-21 19:00:00 6.5 3 Norte 18 Nordeste 0 933.4 0.2 53
2019-01-21 18:00:00 8.7 8 Norte 28 Norte 0 933.4 0.2 46
2019-01-21 17:00:00 9.6 10 Noroeste 28 Noroeste 0 933.3 -0.4 46
2019-01-21 16:00:00 9.8 11 Norte 26 Norte 0 933.2 -1.1 48
2019-01-21 15:00:00 10.1 10 Norte 23 Nordeste 0 933.2 -1.3 47
2019-01-21 14:00:00 8.7 10 Norte 19 Norte 0 933.7 -0.4 51
2019-01-21 13:00:00 8.8 4 Norte 17 Nordeste 0 934.3 0.7 54
2019-01-21 12:00:00 7.4 9 Norte 16 Nordeste 0 934.5 1.3 61
2019-01-21 11:00:00 6.1 7 Norte 16 Norte 0 934.1 1.4 69
2019-01-21 10:00:00 3.3 7 Norte 14 Norte 0 933.6 1.2 82
2019-01-21 09:00:00 1.7 6 Norte 19 Noroeste 0 933.2 1 84
2019-01-21 08:00:00 1.8 6 Norte 12 Norte 0 932.7 0.7 84
2019-01-21 07:00:00 1.8 7 Norte 22 Norte 0 932.4 0.1 85
2019-01-21 06:00:00 2.1 7 Norte 15 Norte 0 932.2 -0.2 83
2019-01-21 05:00:00 2.6 10 Norte 19 Norte 0 932 -0.4 83
2019-01-21 04:00:00 2.7 9 Norte 17 Oeste 0 932.3 0 83
2019-01-21 03:00:00 3.1 9 Noroeste 13 Noroeste 0 932.4 0.4 81
2019-01-21 02:00:00 3.4 8 Noroeste 14 Norte 0 932.4 1 78
2019-01-21 01:00:00 3.8 8 Noroeste 15 Noroeste 0 932.3 1.4 75
2019-01-21 00:00:00 3.9 10 Noroeste 15 Noroeste 0 932 1.3 71
2019-01-20 23:00:00 4.4 6 Norte 19 Noroeste 0 931.4 1.2 68
2019-01-20 22:00:00 4.8 7 Norte 15 Norte 0 930.9 1.3 67
2019-01-20 21:00:00 5.8 8 Norte 15 Norte 0 930.7 1.8 65
2019-01-20 20:00:00 5.5 8 Norte 16 Nordeste 0 930.2 2.2 65
2019-01-20 19:00:00 6.8 9 Norte 26 Noroeste 0 929.6 1.6 61
2019-01-20 18:00:00 9.1 13 Norte 32 Norte 0 928.9 1.4 52
2019-01-20 17:00:00 10.2 14 Norte 37 Norte 0 928 0.7 53
2019-01-20 16:00:00 9.5 15 Norte 37 Norte 0 928 0.5 62
2019-01-20 15:00:00 10.1 17 Norte 37 Norte 0 927.5 0.4 60
2019-01-20 14:00:00 9.8 16 Norte 38 Norte 0 927.3 1.4 64
2019-01-20 13:00:00 8.6 12 Norte 33 Norte 0.2 927.5 2.9 87
2019-01-20 12:00:00 7.4 13 Norte 29 Noroeste 0 927.1 3.2 94
2019-01-20 11:00:00 7.2 14 Noroeste 33 Norte 0.4 925.9 2.5 94
2019-01-20 10:00:00 7.4 17 Noroeste 35 Noroeste 0 924.6 1.6 94
2019-01-20 09:00:00 7.8 18 Noroeste 38 Noroeste 0.2 923.9 1 94
2019-01-20 08:00:00 7.9 18 Noroeste 35 Oeste 0.8 923.4 0.1 94
2019-01-20 07:00:00 7.9 16 Oeste 34 Oeste 0.4 923 -1.1 94
2019-01-20 06:00:00 7.9 17 Oeste 34 Oeste 0.6 922.9 -1.4 94
2019-01-20 05:00:00 7.6 15 Oeste 25 Sudoeste 0.6 923.3 -1.4 94
2019-01-20 04:00:00 7.2 13 Sudoeste 27 Sudoeste 0.4 924.1 -1.4 94
2019-01-20 03:00:00 6.9 12 Sudoeste 21 Sudoeste 0 924.3 -1.6 94
2019-01-20 02:00:00 6.5 8 Sur 17 Sur 0.4 924.7 -1.6 94
2019-01-20 01:00:00 6.4 9 Sur 16 Sur 0 925.5 -1.2 94
2019-01-20 00:00:00 6.2 5 Sur 19 Sur 1.8 925.9 -1.5 94
2019-01-19 23:00:00 6 11 Sur 26 Sudoeste 1.6 926.3 -1.4 94
2019-01-19 22:00:00 5.8 13 Sur 26 Sur 1.2 926.7 -1.2 93
2019-01-19 21:00:00 5.6 13 Sur 26 Sur 1.4 927.4 -1.1 93
2019-01-19 20:00:00 5.5 12 Sur 24 Sur 0.2 927.7 -0.9 92
2019-01-19 19:00:00 5.5 13 Sur 26 Sur 0.2 927.9 -1 91
2019-01-19 18:00:00 5.9 10 Sur 28 Sudoeste 0.4 928.5 -1.2 88
2019-01-19 17:00:00 7 11 Sur 24 Sudoeste 0 928.6 -1.7 78
2019-01-19 16:00:00 7.6 11 Sur 21 Sur 0.2 928.9 -2.5 76
2019-01-19 15:00:00 7.6 8 Sudoeste 16 Sudoeste 0 929.7 -1.9 75
2019-01-19 14:00:00 7.3 6 Sudoeste 15 Sudoeste 0 930.3 -1.2 70
2019-01-19 13:00:00 7.1 9 Oeste 17 Sudoeste 0 931.4 0.3 67
2019-01-19 12:00:00 6.1 4 Sur 8 Sudoeste 0 931.6 0.7 72
2019-01-19 11:00:00 5.4 3 Sur 8 Sudoeste 0 931.5 0.9 77
2019-01-19 10:00:00 4.8 0 Calma 5 Sur 0 931.1 0.4 91
2019-01-19 09:00:00 1.6 3 Sudoeste 4 Sudoeste 0 930.9 0.2 90
2019-01-19 08:00:00 1.5 3 Sur 7 Sudoeste 0 930.6 -0.3 91
2019-01-19 07:00:00 1.2 5 Sudoeste 6 Sudoeste 0 930.7 -0.7 88
2019-01-19 06:00:00 1.7 4 Oeste 6 Oeste 0 930.7 -0.7 87
2019-01-19 05:00:00 2 6 Oeste 8 Noroeste 0 930.9 -0.6 82
2019-01-19 04:00:00 2.5 6 Noroeste 9 Noroeste 0 931.4 -0.5 81
2019-01-19 03:00:00 3.2 6 Noroeste 11 Oeste 0 931.4 -0.8 76
2019-01-19 02:00:00 3.7 3 Sudoeste 8 Noroeste 0 931.5 -0.4 71
2019-01-19 01:00:00 4.4 4 Noroeste 8 Noroeste 0 931.9 0.1 70
2019-01-19 00:00:00 4.9 3 Noroeste 12 Noroeste 0 932.2 0.6 73
2019-01-18 23:00:00 5.3 7 Noroeste 14 Noroeste 0 931.9 0.3 72
2019-01-18 22:00:00 5.5 4 Noroeste 10 Noroeste 0 931.8 0.5 69
2019-01-18 21:00:00 5.8 4 Noroeste 8 Noroeste 0 931.6 -0.1 66
2019-01-18 20:00:00 6 4 Noroeste 7 Noroeste 0 931.6 0 62
2019-01-18 19:00:00 6.6 3 Noroeste 11 Noroeste 0 931.3 -0.7 59
2019-01-18 18:00:00 7.5 7 Noroeste 19 Noroeste 0 931.7 -0.5 54
2019-01-18 17:00:00 8.6 12 Oeste 21 Oeste 0 931.6 -1 50
2019-01-18 16:00:00 8.6 11 Noroeste 21 Noroeste 0 932 -1.2 49
2019-01-18 15:00:00 9 9 Noroeste 16 Noroeste 0 932.2 -1.5 45
2019-01-18 14:00:00 9 7 Noroeste 17 Noroeste 0 932.6 -0.6 48
2019-01-18 13:00:00 8.3 6 Oeste 13 Noroeste 0 933.2 0.6 57
2019-01-18 12:00:00 6.5 9 Noroeste 16 Noroeste 0 933.7 1.1 64
2019-01-18 11:00:00 5.7 6 Noroeste 10 Noroeste 0 933.2 1.2 71
2019-01-18 10:00:00 3 3 Nordeste 7 Noroeste 0 932.6 0.9 76
2019-01-18 09:00:00 1.9 5 Norte 9 Nordeste 0 932.6 1.1 79
2019-01-18 08:00:00 1.3 6 Nordeste 11 Norte 0 932 0.2 86
2019-01-18 07:00:00 1.7 5 Norte 10 Norte 0 931.7 -0.5 87
2019-01-18 06:00:00 1.4 5 Nordeste 15 Norte 0 931.5 -0.8 88
2019-01-18 05:00:00 2.3 7 Norte 14 Norte 0 931.8 -0.7 87
2019-01-18 04:00:00 2.6 6 Norte 15 Norte 0 932.2 -0.4 85
2019-01-18 03:00:00 3.1 5 Nordeste 17 Este 0 932.3 -0.4 84
2019-01-18 02:00:00 3.8 5 Norte 17 Norte 0 932.5 0.4 83
2019-01-18 01:00:00 3.6 9 Norte 17 Norte 0 932.6 0.8 84
2019-01-18 00:00:00 4.3 5 Norte 10 Norte 0 932.7 0.9 81
2019-01-17 23:00:00 4.8 3 Norte 12 Norte 0 932.1 0.6 79
2019-01-17 22:00:00 5.5 6 Norte 15 Norte 0 931.8 0.9 80
2019-01-17 21:00:00 5.8 6 Norte 15 Norte 0 931.8 1.4 82
2019-01-17 20:00:00 6 6 Norte 15 Norte 0 931.5 1.3 79
2019-01-17 19:00:00 6.5 7 Norte 18 Norte 0 930.9 1 74
2019-01-17 18:00:00 7.2 8 Norte 21 Norte 0 930.4 0 68
2019-01-17 17:00:00 7.7 6 Norte 14 Norte 0 930.2 -0.6 65
2019-01-17 16:00:00 8.5 5 Este 20 Este 0 929.9 -1.7 60
2019-01-17 15:00:00 8.1 7 Norte 17 Norte 0 930.4 -1.5 65
2019-01-17 14:00:00 6.9 8 Norte 20 Norte 0 930.8 -0.6 77
2019-01-17 13:00:00 6.3 8 Norte 21 Norte 0 931.6 0.5 83
2019-01-17 12:00:00 6.1 8 Noroeste 12 Noroeste 0 931.9 1 85
2019-01-17 11:00:00 5.7 3 Norte 11 Norte 0 931.4 0.8 85
2019-01-17 10:00:00 5 4 Norte 7 Norte 0 931.1 0.9 85
2019-01-17 09:00:00 4.2 5 Noroeste 7 Noroeste 0 930.9 0.8 85
2019-01-17 08:00:00 4.5 5 Noroeste 10 Noroeste 0 930.6 0 81
2019-01-17 07:00:00 4.1 6 Noroeste 8 Noroeste 0 930.2 -0.6 81
2019-01-17 06:00:00 4.1 0 Calma 8 Noroeste 0 930.1 -0.9 81
2019-01-17 05:00:00 4 6 Noroeste 8 Noroeste 0 930.6 -0.7 84
2019-01-17 04:00:00 3.6 5 Oeste 8 Oeste 0 930.8 -0.9 90
2019-01-17 03:00:00 3.4 6 Sur 10 Sur 0 931 -1 87
2019-01-17 02:00:00 3.9 4 Sur 5 Sur 0 931.3 -0.7 81
2019-01-17 01:00:00 4.1 0 Calma 4 Nordeste 0 931.7 -0.2 80
2019-01-17 00:00:00 4.8 0 Calma 3 Sudeste 0 932 0.1 83
2019-01-16 23:00:00 4.5 0 Calma 5 Norte 0 932 0.2 83
2019-01-16 22:00:00 5 3 Nordeste 7 Este 0 931.9 0.7 81
2019-01-16 21:00:00 5.9 4 Nordeste 8 Noroeste 0 931.9 0.6 80
2019-01-16 20:00:00 6.2 5 Noroeste 10 Noroeste 0 931.8 0.4 78
2019-01-16 19:00:00 7.3 3 Nordeste 5 Nordeste 0 931.2 -0.4 75
2019-01-16 18:00:00 8.4 0 Calma 7 Oeste 0 931.3 -0.6 69
2019-01-16 17:00:00 8.6 0 Calma 13 Sudoeste 0 931.4 -1.1 69
2019-01-16 16:00:00 8.4 8 Oeste 19 Oeste 0 931.6 -1.4 68
2019-01-16 15:00:00 8.8 10 Oeste 21 Sudoeste 0 931.9 -1.8 66
2019-01-16 14:00:00 8.4 12 Sudoeste 22 Oeste 0 932.5 -1.2 66
2019-01-16 13:00:00 8.3 11 Sudoeste 27 Sudoeste 0 933 -0.3 69